Time;durP1;ratioP1;P1;durP2;ratioP2;P2;SDS_P1;SDS_P2;PMS_P1;PMS_P2;Temp;Humidity;BMP_temperature;BMP_pressure;BME280_temperature;BME280_humidity;BME280_pressure;Samples;Min_cycle;Max_cycle;Signal;HPM_P1;HPM_P2
2023/07/06 02:02:14;;;;;;;8.18;4.93;;;;;;;;;;4362982;27;20079;-77
2023/07/06 02:04:43;;;;;;;6.78;4.37;;;;;;;;;;4269702;33;20368;-78
2023/07/06 02:07:11;;;;;;;12.55;4.35;;;;;;;;;;4270170;33;20071;-78
2023/07/06 02:09:43;;;;;;;6.10;4.15;;;;;;;;;;4268711;33;20050;-79
2023/07/06 02:12:12;;;;;;;17.92;3.50;;;;;;;;;;4268898;33;20050;-77
2023/07/06 02:14:42;;;;;;;13.23;3.85;;;;;;;;;;4270173;33;20046;-78
2023/07/06 02:17:09;;;;;;;10.05;3.70;;;;;;;;;;4269001;33;20452;-78
2023/07/06 02:19:36;;;;;;;10.60;4.50;;;;;;;;;;4269939;33;20072;-78
2023/07/06 02:22:03;;;;;;;5.82;3.28;;;;;;;;;;4267692;33;20050;-77
2023/07/06 02:24:30;;;;;;;9.20;3.30;;;;;;;;;;4270034;33;20830;-79
2023/07/06 02:26:57;;;;;;;4.57;3.15;;;;;;;;;;4270087;33;20754;-79
2023/07/06 02:29:23;;;;;;;6.80;3.90;;;;;;;;;;4269668;33;20460;-79
2023/07/06 02:31:50;;;;;;;5.70;3.83;;;;;;;;;;4280506;33;20049;-79
2023/07/06 02:34:24;;;;;;;6.82;4.15;;;;;;;;;;4279853;33;20053;-77
2023/07/06 02:36:51;;;;;;;4.70;3.10;;;;;;;;;;4250736;33;20050;-79
2023/07/06 02:39:19;;;;;;;10.05;3.78;;;;;;;;;;4252048;33;20547;-77
2023/07/06 02:41:46;;;;;;;7.95;3.30;;;;;;;;;;4238653;33;20046;-77
2023/07/06 02:44:13;;;;;;;6.35;3.30;;;;;;;;;;4236254;33;20366;-77
2023/07/06 02:46:38;;;;;;;7.72;3.47;;;;;;;;;;4237723;33;20495;-77
2023/07/06 02:49:06;;;;;;;4.12;3.80;;;;;;;;;;4238922;33;20047;-79
2023/07/06 02:51:35;;;;;;;6.55;3.53;;;;;;;;;;4238873;33;20042;-77
2023/07/06 02:54:01;;;;;;;5.70;3.60;;;;;;;;;;4237400;33;20076;-77
2023/07/06 02:56:27;;;;;;;9.07;3.72;;;;;;;;;;4238398;33;20101;-79
2023/07/06 02:58:54;;;;;;;10.00;3.28;;;;;;;;;;4238480;33;20062;-77
2023/07/06 03:01:20;;;;;;;5.78;4.45;;;;;;;;;;4238700;33;20065;-78
2023/07/06 03:03:46;;;;;;;10.43;4.60;;;;;;;;;;4237988;33;20067;-77
2023/07/06 03:06:12;;;;;;;4.43;3.70;;;;;;;;;;4237816;33;20034;-76
2023/07/06 03:08:38;;;;;;;6.90;4.03;;;;;;;;;;4248927;33;20041;-78
2023/07/06 03:11:04;;;;;;;10.68;4.32;;;;;;;;;;4253299;33;20077;-78
2023/07/06 03:13:31;;;;;;;8.95;4.47;;;;;;;;;;4252742;33;20042;-77
2023/07/06 03:15:58;;;;;;;5.95;3.87;;;;;;;;;;4253086;33;20497;-78
2023/07/06 03:18:25;;;;;;;12.68;3.95;;;;;;;;;;4256992;33;20054;-78
2023/07/06 03:20:51;;;;;;;12.93;3.90;;;;;;;;;;4263054;33;20057;-78
2023/07/06 03:23:18;;;;;;;4.90;3.35;;;;;;;;;;4269736;33;20075;-77
2023/07/06 03:25:44;;;;;;;4.62;4.18;;;;;;;;;;4270142;33;20110;-78
2023/07/06 03:28:11;;;;;;;5.57;3.42;;;;;;;;;;4268442;33;20068;-78
2023/07/06 03:30:36;;;;;;;4.18;3.00;;;;;;;;;;4268976;33;20117;-78
2023/07/06 03:33:03;;;;;;;7.22;2.90;;;;;;;;;;4272935;33;20050;-78
2023/07/06 03:35:29;;;;;;;3.67;3.37;;;;;;;;;;4270111;33;20053;-78
2023/07/06 03:37:58;;;;;;;9.25;3.83;;;;;;;;;;4270623;33;20049;-78
2023/07/06 03:40:29;;;;;;;11.65;3.45;;;;;;;;;;4275478;33;20046;-79
2023/07/06 03:42:56;;;;;;;11.27;3.60;;;;;;;;;;4285999;33;20063;-80
2023/07/06 03:45:22;;;;;;;8.10;3.50;;;;;;;;;;4286098;33;20133;-79
2023/07/06 03:47:50;;;;;;;5.78;3.03;;;;;;;;;;4279463;33;20058;-78
2023/07/06 03:50:17;;;;;;;4.30;2.87;;;;;;;;;;4280018;33;20055;-79
2023/07/06 03:52:44;;;;;;;6.60;2.97;;;;;;;;;;4279181;33;20529;-77
2023/07/06 03:55:12;;;;;;;5.93;3.60;;;;;;;;;;4281076;33;20041;-78
2023/07/06 03:57:40;;;;;;;7.47;4.40;;;;;;;;;;4281182;33;20053;-78
2023/07/06 04:00:22;;;;;;;15.32;4.40;;;;;;;;;;4281212;33;20042;-78
2023/07/06 04:02:49;;;;;;;8.25;3.42;;;;;;;;;;4280724;33;20049;-78
2023/07/06 04:05:17;;;;;;;4.12;3.45;;;;;;;;;;4280383;33;20495;-80
2023/07/06 04:07:44;;;;;;;7.25;3.45;;;;;;;;;;4281035;33;20102;-79
2023/07/06 04:10:11;;;;;;;21.40;3.53;;;;;;;;;;4277122;33;20489;-77
2023/07/06 04:12:37;;;;;;;4.40;3.47;;;;;;;;;;4279687;33;20092;-79
2023/07/06 04:15:04;;;;;;;4.00;3.25;;;;;;;;;;4268849;33;20041;-79
2023/07/06 04:17:31;;;;;;;4.57;3.70;;;;;;;;;;4268662;33;20037;-80
2023/07/06 04:19:58;;;;;;;4.78;3.78;;;;;;;;;;4267323;33;20460;-79
2023/07/06 04:22:24;;;;;;;15.68;4.55;;;;;;;;;;4265285;33;20072;-78
2023/07/06 04:24:51;;;;;;;6.00;3.78;;;;;;;;;;4267760;33;20046;-78
2023/07/06 04:27:17;;;;;;;7.75;3.25;;;;;;;;;;4280123;33;20049;-79
2023/07/06 04:29:44;;;;;;;5.68;3.05;;;;;;;;;;4279167;33;20618;-79
2023/07/06 04:32:10;;;;;;;8.65;2.75;;;;;;;;;;4280606;33;20576;-78
2023/07/06 04:34:39;;;;;;;11.57;2.87;;;;;;;;;;4278039;33;20041;-79
2023/07/06 04:37:07;;;;;;;6.32;3.33;;;;;;;;;;4280676;33;20118;-79
2023/07/06 04:39:36;;;;;;;7.55;2.65;;;;;;;;;;4250780;33;20034;-78
2023/07/06 04:42:03;;;;;;;2.65;2.37;;;;;;;;;;4251166;33;20041;-79
2023/07/06 04:44:29;;;;;;;6.97;2.80;;;;;;;;;;4235401;33;20068;-78
2023/07/06 04:46:58;;;;;;;6.18;1.90;;;;;;;;;;4236817;33;20038;-78
2023/07/06 04:49:25;;;;;;;3.83;2.30;;;;;;;;;;4238226;33;20068;-78
2023/07/06 04:51:51;;;;;;;2.12;1.87;;;;;;;;;;4236864;33;20087;-79
2023/07/06 04:54:17;;;;;;;3.85;1.98;;;;;;;;;;4236829;33;20111;-78
2023/07/06 04:56:44;;;;;;;9.10;2.10;;;;;;;;;;4235631;33;20427;-77
2023/07/06 04:59:09;;;;;;;6.85;2.03;;;;;;;;;;4237417;33;20055;-78
2023/07/06 05:01:36;;;;;;;5.30;1.85;;;;;;;;;;4237527;33;20129;-79
2023/07/06 05:04:02;;;;;;;1.90;1.80;;;;;;;;;;4237900;33;20086;-78
2023/07/06 05:06:28;;;;;;;7.97;1.77;;;;;;;;;;4236947;33;20068;-79
2023/07/06 05:08:54;;;;;;;15.63;2.08;;;;;;;;;;4235685;33;20042;-77
2023/07/06 05:11:21;;;;;;;5.43;1.83;;;;;;;;;;4237204;33;20411;-79
2023/07/06 05:13:47;;;;;;;11.68;2.60;;;;;;;;;;4226796;33;20042;-79
2023/07/06 05:16:13;;;;;;;1.75;1.65;;;;;;;;;;4248073;33;20034;-78
2023/07/06 05:18:39;;;;;;;2.28;2.00;;;;;;;;;;4237790;33;20120;-79
2023/07/06 05:21:06;;;;;;;2.05;1.85;;;;;;;;;;4220637;34;20431;-78
2023/07/06 05:23:32;;;;;;;2.40;1.60;;;;;;;;;;4222839;34;20186;-79
2023/07/06 05:26:03;;;;;;;16.25;2.45;;;;;;;;;;4223090;34;20500;-80
2023/07/06 05:28:29;;;;;;;3.30;1.70;;;;;;;;;;4223524;34;20039;-79
2023/07/06 05:30:56;;;;;;;2.95;1.70;;;;;;;;;;4221143;34;20080;-78
2023/07/06 05:33:22;;;;;;;1.80;1.58;;;;;;;;;;4222670;34;20035;-80
2023/07/06 05:35:49;;;;;;;3.25;1.67;;;;;;;;;;4211359;34;20055;-79
2023/07/06 05:38:15;;;;;;;5.47;1.60;;;;;;;;;;4223313;34;20047;-80
2023/07/06 05:40:41;;;;;;;2.03;1.67;;;;;;;;;;4223186;34;20063;-79
2023/07/06 05:43:09;;;;;;;7.00;1.55;;;;;;;;;;4222556;34;20088;-79
2023/07/06 05:45:36;;;;;;;11.38;1.90;;;;;;;;;;4220980;34;20528;-79
2023/07/06 05:48:02;;;;;;;1.83;1.70;;;;;;;;;;4195513;34;20063;-78
2023/07/06 05:50:29;;;;;;;7.87;1.50;;;;;;;;;;4201889;34;20061;-80
2023/07/06 05:52:55;;;;;;;3.47;1.40;;;;;;;;;;4220310;34;20042;-80
2023/07/06 05:55:23;;;;;;;15.90;1.83;;;;;;;;;;4245886;33;20049;-78
2023/07/06 05:57:50;;;;;;;1.65;1.55;;;;;;;;;;4250553;33;20034;-80
2023/07/06 06:00:16;;;;;;;1.20;1.20;;;;;;;;;;4251315;33;20563;-80
2023/07/06 06:02:44;;;;;;;2.92;1.60;;;;;;;;;;4249159;33;20054;-78
2023/07/06 06:05:13;;;;;;;2.12;1.35;;;;;;;;;;4251345;33;20038;-79
2023/07/06 06:07:40;;;;;;;2.22;1.83;;;;;;;;;;4248021;33;20490;-79
2023/07/06 06:10:07;;;;;;;4.03;2.15;;;;;;;;;;4251715;33;20072;-79
2023/07/06 06:12:34;;;;;;;15.90;2.25;;;;;;;;;;4253941;33;20506;-79
2023/07/06 06:15:00;;;;;;;2.95;1.92;;;;;;;;;;4253765;33;20436;-78
2023/07/06 06:17:27;;;;;;;8.35;1.60;;;;;;;;;;4253530;33;20064;-77
2023/07/06 06:19:53;;;;;;;1.33;1.23;;;;;;;;;;4265924;33;20092;-78
2023/07/06 06:22:19;;;;;;;6.00;1.25;;;;;;;;;;4270512;33;20949;-78
2023/07/06 06:24:46;;;;;;;2.28;1.65;;;;;;;;;;4269726;33;20445;-79
2023/07/06 06:27:19;;;;;;;2.60;1.48;;;;;;;;;;4281445;33;20071;-80
2023/07/06 06:29:46;;;;;;;5.03;1.42;;;;;;;;;;4279322;33;20046;-80
2023/07/06 06:32:13;;;;;;;3.05;2.20;;;;;;;;;;4281814;33;20076;-80
2023/07/06 06:34:40;;;;;;;7.30;1.90;;;;;;;;;;4267505;33;20855;-77
2023/07/06 06:37:06;;;;;;;6.35;1.40;;;;;;;;;;4265515;33;20045;-79
2023/07/06 06:39:33;;;;;;;8.32;1.58;;;;;;;;;;4262334;33;20408;-78
2023/07/06 06:42:00;;;;;;;5.57;1.55;;;;;;;;;;4265985;33;20063;-80
2023/07/06 06:44:28;;;;;;;5.28;1.60;;;;;;;;;;4264156;33;20739;-79
2023/07/06 06:46:56;;;;;;;3.92;1.45;;;;;;;;;;4265833;33;20080;-79
2023/07/06 06:49:22;;;;;;;1.83;1.45;;;;;;;;;;4263160;33;20050;-80
2023/07/06 06:51:49;;;;;;;7.10;1.77;;;;;;;;;;4259378;33;20038;-80
2023/07/06 06:54:15;;;;;;;4.18;1.60;;;;;;;;;;4258923;33;20469;-80
2023/07/06 06:56:41;;;;;;;4.80;1.70;;;;;;;;;;4261365;33;20042;-80
2023/07/06 06:59:14;;;;;;;3.60;1.55;;;;;;;;;;4234052;33;20066;-79
2023/07/06 07:01:40;;;;;;;7.03;1.45;;;;;;;;;;4254703;33;20452;-79
2023/07/06 07:04:09;;;;;;;6.60;1.65;;;;;;;;;;4258819;33;20234;-79
2023/07/06 07:06:38;;;;;;;3.75;1.60;;;;;;;;;;4277956;33;20525;-79
2023/07/06 07:09:05;;;;;;;1.70;1.60;;;;;;;;;;4277369;33;20099;-78
2023/07/06 07:11:31;;;;;;;5.87;1.62;;;;;;;;;;4279531;33;20443;-78
2023/07/06 07:13:57;;;;;;;6.43;1.50;;;;;;;;;;4275335;33;20138;-79
2023/07/06 07:16:23;;;;;;;3.50;1.42;;;;;;;;;;4279552;33;20045;-79
2023/07/06 07:18:49;;;;;;;2.70;2.12;;;;;;;;;;4291464;33;20049;-78
2023/07/06 07:21:16;;;;;;;1.48;1.35;;;;;;;;;;4281637;33;20452;-78
2023/07/06 07:23:43;;;;;;;7.62;1.55;;;;;;;;;;4291179;33;20049;-79
2023/07/06 07:26:10;;;;;;;2.28;1.55;;;;;;;;;;4261146;33;20042;-77
2023/07/06 07:28:37;;;;;;;5.03;2.03;;;;;;;;;;4260259;33;20080;-78
2023/07/06 07:31:03;;;;;;;4.78;1.50;;;;;;;;;;4259078;33;20030;-79
2023/07/06 07:33:29;;;;;;;3.17;1.33;;;;;;;;;;4247828;33;20068;-78
2023/07/06 07:35:57;;;;;;;4.18;1.77;;;;;;;;;;4245546;33;20404;-80
2023/07/06 07:38:24;;;;;;;2.30;1.70;;;;;;;;;;4243063;33;20042;-78
2023/07/06 07:40:57;;;;;;;4.28;1.60;;;;;;;;;;4243310;33;20097;-79
2023/07/06 07:43:25;;;;;;;7.15;1.45;;;;;;;;;;4248209;33;20077;-79
2023/07/06 07:46:05;;;;;;;3.15;2.42;;;;;;;;;;4249387;33;20042;-79
2023/07/06 07:48:45;;;;;;;;;;;;;;;;;;4248798;33;20062;-78
2023/07/06 07:51:16;;;;;;;11.25;1.80;;;;;;;;;;4248119;33;20005;-79
2023/07/06 07:53:44;;;;;;;2.42;1.37;;;;;;;;;;4247165;33;20050;-80
2023/07/06 07:56:10;;;;;;;6.87;1.70;;;;;;;;;;4246513;33;20059;-77
2023/07/06 07:58:37;;;;;;;3.03;1.42;;;;;;;;;;4266408;33;20192;-79
2023/07/06 08:01:05;;;;;;;3.42;1.90;;;;;;;;;;4260096;33;20033;-79
2023/07/06 08:03:32;;;;;;;10.30;1.92;;;;;;;;;;4258257;33;20087;-79
2023/07/06 08:06:02;;;;;;;1.50;1.40;;;;;;;;;;4254558;33;20073;-78
2023/07/06 08:08:30;;;;;;;5.03;1.98;;;;;;;;;;4259144;33;20050;-78
2023/07/06 08:10:59;;;;;;;3.42;1.62;;;;;;;;;;4256437;33;20366;-79
2023/07/06 08:13:25;;;;;;;2.85;1.40;;;;;;;;;;4257665;33;20404;-79
2023/07/06 08:15:51;;;;;;;14.55;4.57;;;;;;;;;;4259034;33;20080;-77
2023/07/06 08:18:18;;;;;;;3.22;1.60;;;;;;;;;;4255539;33;20093;-78
2023/07/06 08:20:44;;;;;;;5.30;1.85;;;;;;;;;;4258491;33;20045;-78
2023/07/06 08:23:11;;;;;;;3.08;2.22;;;;;;;;;;4259166;33;20451;-78
2023/07/06 08:25:41;;;;;;;4.65;2.03;;;;;;;;;;4256515;33;20061;-78
2023/07/06 08:28:09;;;;;;;2.78;1.27;;;;;;;;;;4256085;33;20085;-77
2023/07/06 08:30:35;;;;;;;7.72;1.67;;;;;;;;;;4257890;33;20076;-79
2023/07/06 08:33:01;;;;;;;5.80;2.22;;;;;;;;;;4264657;33;20063;-78
2023/07/06 08:35:28;;;;;;;2.12;1.80;;;;;;;;;;4267371;33;20045;-78
2023/07/06 08:37:54;;;;;;;3.58;2.00;;;;;;;;;;4267155;33;20041;-78
2023/07/06 08:40:23;;;;;;;7.82;1.90;;;;;;;;;;4264453;33;20392;-79
2023/07/06 08:42:49;;;;;;;3.50;1.90;;;;;;;;;;4266083;33;20536;-78
2023/07/06 08:45:21;;;;;;;10.30;2.30;;;;;;;;;;4265696;33;20034;-78
2023/07/06 08:47:48;;;;;;;4.15;1.67;;;;;;;;;;4267097;33;20451;-78
2023/07/06 08:50:15;;;;;;;13.73;2.28;;;;;;;;;;4264694;33;20050;-78
2023/07/06 08:52:42;;;;;;;2.60;1.65;;;;;;;;;;4267778;33;20080;-79
2023/07/06 08:55:13;;;;;;;5.07;1.87;;;;;;;;;;4266758;33;20085;-79
2023/07/06 08:57:39;;;;;;;6.72;1.40;;;;;;;;;;4267576;33;20889;-79
2023/07/06 09:00:16;;;;;;;6.03;1.65;;;;;;;;;;4266666;33;20049;-79
2023/07/06 09:02:42;;;;;;;2.10;1.90;;;;;;;;;;4266366;33;20062;-82
2023/07/06 09:05:13;;;;;;;2.30;2.10;;;;;;;;;;4267598;33;20073;-80
2023/07/06 09:07:42;;;;;;;6.15;2.25;;;;;;;;;;4264945;33;20084;-80
2023/07/06 09:10:12;;;;;;;4.68;1.75;;;;;;;;;;4264391;33;20122;-79
2023/07/06 09:12:39;;;;;;;8.27;1.77;;;;;;;;;;4265763;33;20099;-81
2023/07/06 09:15:08;;;;;;;6.07;2.42;;;;;;;;;;4266263;33;20064;-80
2023/07/06 09:17:44;;;;;;;5.32;4.25;;;;;;;;;;4266907;33;20049;-81
2023/07/06 09:20:11;;;;;;;3.72;1.80;;;;;;;;;;4265734;33;20599;-80
2023/07/06 09:22:41;;;;;;;7.95;1.60;;;;;;;;;;4291936;33;20061;-79
2023/07/06 09:25:12;;;;;;;4.30;2.05;;;;;;;;;;4294103;33;20071;-79
2023/07/06 09:27:39;;;;;;;;;;;;;;;;;;4290625;33;20402;-80
2023/07/06 09:30:06;;;;;;;8.27;2.05;;;;;;;;;;4292400;33;19996;-80
2023/07/06 09:32:34;;;;;;;2.75;2.28;;;;;;;;;;4293647;33;20431;-80
2023/07/06 09:35:06;;;;;;;5.43;2.05;;;;;;;;;;4293042;33;20033;-82
2023/07/06 09:37:32;;;;;;;;;;;;;;;;;;4291717;33;20112;-79
2023/07/06 09:40:05;;;;;;;6.12;2.37;;;;;;;;;;4291091;33;20003;-79
2023/07/06 09:42:32;;;;;;;4.32;2.72;;;;;;;;;;4293870;33;20104;-79
2023/07/06 09:45:00;;;;;;;6.20;2.17;;;;;;;;;;4293326;33;20080;-79
2023/07/06 09:47:27;;;;;;;2.55;2.28;;;;;;;;;;4294292;33;20088;-79
2023/07/06 09:49:59;;;;;;;3.10;2.12;;;;;;;;;;4293120;33;20442;-81
2023/07/06 09:52:26;;;;;;;5.53;2.47;;;;;;;;;;4249689;33;20099;-79
2023/07/06 09:54:54;;;;;;;4.35;2.25;;;;;;;;;;4236664;33;20033;-78
2023/07/06 09:57:23;;;;;;;21.33;2.03;;;;;;;;;;4235212;33;20055;-78
2023/07/06 09:59:49;;;;;;;2.25;1.80;;;;;;;;;;4236927;33;20050;-79
2023/07/06 10:02:34;;;;;;;2.72;1.67;;;;;;;;;;4237215;33;20467;-79
2023/07/06 10:05:14;;;;;;;5.43;2.10;;;;;;;;;;4238448;33;20042;-80
2023/07/06 10:07:53;;;;;;;13.32;2.10;;;;;;;;;;4238283;33;20218;-79
2023/07/06 10:10:38;;;;;;;7.50;2.25;;;;;;;;;;4238193;33;20289;-79
2023/07/06 10:13:16;;;;;;;2.72;1.90;;;;;;;;;;4235981;33;20484;-81
2023/07/06 10:15:51;;;;;;;4.12;1.60;;;;;;;;;;4235886;33;20050;-80
2023/07/06 10:18:26;;;;;;;9.02;1.95;;;;;;;;;;4232376;33;20055;-78
2023/07/06 10:20:54;;;;;;;2.83;2.08;;;;;;;;;;4232414;33;20427;-80
2023/07/06 10:23:40;;;;;;;6.00;1.58;;;;;;;;;;4245847;33;20045;-81
2023/07/06 10:26:07;;;;;;;8.60;1.80;;;;;;;;;;4267510;33;20072;-78
2023/07/06 10:28:35;;;;;;;6.78;2.35;;;;;;;;;;4268591;33;20050;-80
2023/07/06 10:31:03;;;;;;;1.77;1.67;;;;;;;;;;4269437;33;20050;-80
2023/07/06 10:33:37;;;;;;;3.53;1.95;;;;;;;;;;4267171;33;20395;-80
2023/07/06 10:36:05;;;;;;;8.45;2.37;;;;;;;;;;4268007;33;20115;-79
2023/07/06 10:38:31;;;;;;;1.60;1.50;;;;;;;;;;4290199;33;20506;-80
2023/07/06 10:41:09;;;;;;;7.22;2.10;;;;;;;;;;4291275;33;20041;-81
2023/07/06 10:43:38;;;;;;;5.45;1.90;;;;;;;;;;4293375;33;20044;-81
2023/07/06 10:46:26;;;;;;;13.05;1.85;;;;;;;;;;4287972;33;20552;-79
2023/07/06 10:48:54;;;;;;;6.22;2.80;;;;;;;;;;4291925;33;20063;-80
2023/07/06 10:51:23;;;;;;;3.95;2.72;;;;;;;;;;4286466;33;20034;-80
2023/07/06 10:54:10;;;;;;;4.85;1.60;;;;;;;;;;4289232;33;20037;-78
2023/07/06 10:56:45;;;;;;;3.53;1.95;;;;;;;;;;4294223;33;20856;-80
2023/07/06 10:59:17;;;;;;;5.18;2.22;;;;;;;;;;4295152;33;20067;-80
2023/07/06 11:01:46;;;;;;;7.72;2.00;;;;;;;;;;4442381;27;20072;-78
2023/07/06 11:04:31;;;;;;;6.10;1.75;;;;;;;;;;4305049;33;20397;-79
2023/07/06 11:06:58;;;;;;;1.87;1.75;;;;;;;;;;4306415;33;20060;-81
2023/07/06 11:09:24;;;;;;;3.12;2.80;;;;;;;;;;4302811;33;20044;-79
2023/07/06 11:11:54;;;;;;;2.12;1.92;;;;;;;;;;4300919;33;20128;-83
2023/07/06 11:14:36;;;;;;;9.13;2.23;;;;;;;;;;4302956;33;20465;-80
2023/07/06 11:17:21;;;;;;;2.75;2.12;;;;;;;;;;4268002;33;20058;-79
2023/07/06 11:20:03;;;;;;;2.20;1.90;;;;;;;;;;4264978;33;20407;-80
2023/07/06 11:22:30;;;;;;;7.62;2.22;;;;;;;;;;4263333;33;20038;-80
2023/07/06 11:25:03;;;;;;;3.28;1.85;;;;;;;;;;4266180;33;20253;-80
2023/07/06 11:27:32;;;;;;;3.87;1.83;;;;;;;;;;4265134;33;20041;-80
2023/07/06 11:30:24;;;;;;;4.55;2.90;;;;;;;;;;4266485;33;20139;-76
2023/07/06 11:32:53;;;;;;;2.08;1.87;;;;;;;;;;4261201;33;20120;-81
2023/07/06 11:35:25;;;;;;;2.67;2.03;;;;;;;;;;4264554;33;20053;-80
2023/07/06 11:37:54;;;;;;;2.03;1.60;;;;;;;;;;4263184;33;20038;-78
2023/07/06 11:40:24;;;;;;;2.45;1.70;;;;;;;;;;4265843;33;20050;-79
2023/07/06 11:42:55;;;;;;;6.10;2.08;;;;;;;;;;4265060;33;20045;-80
2023/07/06 11:45:33;;;;;;;6.95;3.35;;;;;;;;;;4264882;33;20189;-81
2023/07/06 11:48:05;;;;;;;3.53;2.15;;;;;;;;;;4263186;33;20109;-79
2023/07/06 11:50:35;;;;;;;6.12;2.25;;;;;;;;;;4267574;33;20095;-80
2023/07/06 11:53:19;;;;;;;2.62;2.05;;;;;;;;;;4265995;33;20399;-80
2023/07/06 11:55:54;;;;;;;5.93;1.70;;;;;;;;;;4266764;33;20493;-81
2023/07/06 12:01:21;;;;;;;2.60;2.35;;;;;;;;;;4263831;33;20038;-77
2023/07/06 12:03:47;;;;;;;2.25;2.05;;;;;;;;;;4266599;33;20046;-80
2023/07/06 12:06:14;;;;;;;8.90;2.17;;;;;;;;;;4277151;33;20064;-79
2023/07/06 12:08:40;;;;;;;5.40;2.08;;;;;;;;;;4279727;33;20036;-81
2023/07/06 12:11:11;;;;;;;2.10;1.83;;;;;;;;;;4278166;33;20057;-77
2023/07/06 12:13:41;;;;;;;4.18;2.28;;;;;;;;;;4279622;33;20045;-81
2023/07/06 12:16:27;;;;;;;2.60;2.03;;;;;;;;;;4279728;33;20069;-80
2023/07/06 12:19:04;;;;;;;13.82;2.65;;;;;;;;;;4265208;33;20126;-82
2023/07/06 12:21:35;;;;;;;5.53;2.10;;;;;;;;;;4265438;33;20067;-81
2023/07/06 12:24:02;;;;;;;2.78;1.95;;;;;;;;;;4262306;33;20059;-82
2023/07/06 12:26:29;;;;;;;2.92;2.12;;;;;;;;;;4264233;33;20493;-86
2023/07/06 12:28:56;;;;;;;3.72;1.87;;;;;;;;;;4263430;33;20097;-78
2023/07/06 12:31:23;;;;;;;3.35;2.28;;;;;;;;;;4264738;33;20119;-82
2023/07/06 12:33:58;;;;;;;3.85;2.33;;;;;;;;;;4264671;33;20067;-79
2023/07/06 12:36:26;;;;;;;4.70;2.45;;;;;;;;;;4262948;33;20479;-80
2023/07/06 12:38:53;;;;;;;8.55;2.42;;;;;;;;;;4251820;33;20052;-81
2023/07/06 12:41:20;;;;;;;7.12;1.90;;;;;;;;;;4249799;33;20075;-81
2023/07/06 12:43:49;;;;;;;2.80;2.00;;;;;;;;;;4251681;33;20268;-81
2023/07/06 12:46:21;;;;;;;7.35;2.00;;;;;;;;;;4250178;33;20443;-81
2023/07/06 12:48:48;;;;;;;4.20;3.20;;;;;;;;;;4251853;33;20045;-82
2023/07/06 12:51:21;;;;;;;11.23;2.67;;;;;;;;;;4252890;33;20084;-80
2023/07/06 12:53:47;;;;;;;3.75;2.00;;;;;;;;;;4254465;33;20080;-79
2023/07/06 12:56:15;;;;;;;2.45;2.25;;;;;;;;;;4253705;33;20066;-83
2023/07/06 12:58:46;;;;;;;4.05;2.10;;;;;;;;;;4252266;33;20465;-78
2023/07/06 13:01:20;;;;;;;5.95;2.37;;;;;;;;;;4254985;33;20054;-80
2023/07/06 13:03:56;;;;;;;4.75;2.08;;;;;;;;;;4251416;33;20034;-80
2023/07/06 13:06:25;;;;;;;5.55;2.25;;;;;;;;;;4249896;33;20059;-77
2023/07/06 13:08:54;;;;;;;1.58;1.48;;;;;;;;;;4250168;33;20550;-80
2023/07/06 13:11:26;;;;;;;3.53;2.67;;;;;;;;;;4251494;33;20072;-80
2023/07/06 13:13:56;;;;;;;2.00;1.80;;;;;;;;;;4251473;33;20042;-80
2023/07/06 13:16:22;;;;;;;6.43;2.23;;;;;;;;;;4250573;33;20454;-78
2023/07/06 13:18:49;;;;;;;2.37;1.95;;;;;;;;;;4251030;33;20183;-79
2023/07/06 13:21:17;;;;;;;4.07;2.35;;;;;;;;;;4250173;33;20568;-80
2023/07/06 13:23:44;;;;;;;12.15;2.33;;;;;;;;;;4251424;33;20060;-80
2023/07/06 13:26:11;;;;;;;4.68;2.00;;;;;;;;;;4250396;33;20396;-79
2023/07/06 13:28:38;;;;;;;3.53;1.75;;;;;;;;;;4249406;33;20127;-81
2023/07/06 13:31:05;;;;;;;2.03;1.90;;;;;;;;;;4251696;33;20384;-82
2023/07/06 13:33:34;;;;;;;6.82;1.73;;;;;;;;;;4251629;33;20064;-80
2023/07/06 13:36:02;;;;;;;1.60;1.60;;;;;;;;;;4265537;33;20072;-80
2023/07/06 13:38:28;;;;;;;5.30;2.12;;;;;;;;;;4264242;33;20420;-81
2023/07/06 13:40:54;;;;;;;8.02;1.95;;;;;;;;;;4265752;33;20196;-82
2023/07/06 13:43:22;;;;;;;3.12;2.20;;;;;;;;;;4265573;33;20083;-81
2023/07/06 13:45:49;;;;;;;2.33;1.92;;;;;;;;;;4265540;33;20159;-79
2023/07/06 13:48:16;;;;;;;27.27;2.75;;;;;;;;;;4262801;33;20030;-80
2023/07/06 13:50:45;;;;;;;2.03;1.77;;;;;;;;;;4265677;33;20223;-79
2023/07/06 13:53:12;;;;;;;2.62;1.45;;;;;;;;;;4252548;33;20051;-79
2023/07/06 13:55:48;;;;;;;5.78;2.90;;;;;;;;;;4252131;33;20105;-79
2023/07/06 13:58:15;;;;;;;3.30;1.75;;;;;;;;;;4251657;33;20084;-80
2023/07/06 14:00:42;;;;;;;3.85;1.80;;;;;;;;;;4251607;33;20041;-80
2023/07/06 14:03:09;;;;;;;3.87;1.67;;;;;;;;;;4251395;33;20101;-80
2023/07/06 14:05:37;;;;;;;1.80;1.70;;;;;;;;;;4250657;33;20050;-80
2023/07/06 14:08:03;;;;;;;6.40;1.60;;;;;;;;;;4235211;33;20395;-80
2023/07/06 14:10:30;;;;;;;1.90;1.80;;;;;;;;;;4237588;33;20542;-79
2023/07/06 14:12:56;;;;;;;2.22;1.50;;;;;;;;;;4237032;33;20059;-79
2023/07/06 14:15:23;;;;;;;4.62;1.67;;;;;;;;;;4235936;33;20089;-79
2023/07/06 14:17:49;;;;;;;3.72;1.50;;;;;;;;;;4237122;33;20100;-79
2023/07/06 14:20:16;;;;;;;2.47;1.90;;;;;;;;;;4235519;33;20045;-79
2023/07/06 14:22:42;;;;;;;4.15;1.35;;;;;;;;;;4236118;33;20775;-80
2023/07/06 14:25:24;;;;;;;1.60;1.50;;;;;;;;;;4237476;33;20076;-80
2023/07/06 14:27:54;;;;;;;5.40;2.08;;;;;;;;;;4237341;33;20489;-79
2023/07/06 14:30:22;;;;;;;5.20;1.70;;;;;;;;;;4236091;33;20389;-78
2023/07/06 14:32:49;;;;;;;10.73;1.92;;;;;;;;;;4238720;33;20043;-80
2023/07/06 14:35:15;;;;;;;4.25;2.00;;;;;;;;;;4240886;33;20070;-78
2023/07/06 14:37:42;;;;;;;2.15;1.90;;;;;;;;;;4239745;33;20052;-78
2023/07/06 14:40:09;;;;;;;4.25;1.70;;;;;;;;;;4255034;33;20096;-79
2023/07/06 14:42:35;;;;;;;7.95;2.00;;;;;;;;;;4253270;33;20043;-80
2023/07/06 14:45:02;;;;;;;2.10;1.60;;;;;;;;;;4256437;33;20080;-79
2023/07/06 14:47:27;;;;;;;5.60;1.50;;;;;;;;;;4256309;33;20026;-79
2023/07/06 14:50:00;;;;;;;9.38;2.47;;;;;;;;;;4256252;33;20071;-79
2023/07/06 14:52:29;;;;;;;5.47;1.87;;;;;;;;;;4253354;33;20491;-81
2023/07/06 14:54:55;;;;;;;1.77;1.67;;;;;;;;;;4255167;33;20063;-80
2023/07/06 14:57:22;;;;;;;1.75;1.70;;;;;;;;;;4255955;33;20053;-80
2023/07/06 14:59:49;;;;;;;2.37;1.70;;;;;;;;;;4266366;33;20100;-80
2023/07/06 15:02:16;;;;;;;5.20;1.65;;;;;;;;;;4266774;33;20046;-79
2023/07/06 15:04:45;;;;;;;4.57;2.10;;;;;;;;;;4265515;33;20084;-78
2023/07/06 15:07:11;;;;;;;6.85;2.20;;;;;;;;;;4267870;33;20069;-80
2023/07/06 15:09:37;;;;;;;8.23;1.98;;;;;;;;;;4266847;33;20057;-79
2023/07/06 15:12:03;;;;;;;1.83;1.42;;;;;;;;;;4265539;33;20084;-79
2023/07/06 15:14:30;;;;;;;1.73;1.60;;;;;;;;;;4267315;33;20038;-79
2023/07/06 15:17:02;;;;;;;1.87;1.50;;;;;;;;;;4266440;33;20030;-79
2023/07/06 15:19:28;;;;;;;2.45;1.70;;;;;;;;;;4267346;33;20236;-79
2023/07/06 15:22:01;;;;;;;3.60;1.60;;;;;;;;;;4281985;33;20479;-78
2023/07/06 15:24:27;;;;;;;3.20;1.80;;;;;;;;;;4280079;33;20124;-79
2023/07/06 15:26:53;;;;;;;2.17;1.98;;;;;;;;;;4278515;33;20067;-77
2023/07/06 15:29:20;;;;;;;2.62;2.37;;;;;;;;;;4280320;33;20402;-79
2023/07/06 15:31:46;;;;;;;3.25;1.67;;;;;;;;;;4268948;33;20037;-82
2023/07/06 15:34:13;;;;;;;2.95;2.22;;;;;;;;;;4266904;33;20050;-78
2023/07/06 15:36:39;;;;;;;2.17;1.85;;;;;;;;;;4265879;33;20110;-78
2023/07/06 15:39:06;;;;;;;6.25;2.05;;;;;;;;;;4264826;33;20479;-77
2023/07/06 15:41:32;;;;;;;3.08;1.75;;;;;;;;;;4266555;33;20124;-78
2023/07/06 15:44:06;;;;;;;11.05;1.60;;;;;;;;;;4266330;33;20881;-80
2023/07/06 15:46:32;;;;;;;6.45;1.90;;;;;;;;;;4266296;33;20050;-78
2023/07/06 15:48:59;;;;;;;5.53;2.45;;;;;;;;;;4266021;33;20095;-79
2023/07/06 15:51:25;;;;;;;2.87;2.50;;;;;;;;;;4265480;33;20029;-79
2023/07/06 15:53:52;;;;;;;3.90;2.78;;;;;;;;;;4254756;33;20051;-78
2023/07/06 15:56:18;;;;;;;3.40;2.10;;;;;;;;;;4254267;33;20204;-78
2023/07/06 15:58:55;;;;;;;2.47;2.00;;;;;;;;;;4253109;33;20042;-80
2023/07/06 16:01:21;;;;;;;4.07;2.03;;;;;;;;;;4254499;33;20213;-79
2023/07/06 16:03:48;;;;;;;2.28;2.08;;;;;;;;;;4252023;33;20412;-79
2023/07/06 16:06:14;;;;;;;3.50;2.17;;;;;;;;;;4252428;33;20061;-79
2023/07/06 16:08:40;;;;;;;11.07;3.35;;;;;;;;;;4252225;33;20054;-80
2023/07/06 16:11:17;;;;;;;2.42;1.87;;;;;;;;;;4249999;33;20042;-78
2023/07/06 16:13:43;;;;;;;6.75;1.90;;;;;;;;;;4252147;33;20347;-79
2023/07/06 16:16:09;;;;;;;2.50;2.40;;;;;;;;;;4252119;33;20034;-79
2023/07/06 16:18:35;;;;;;;2.55;2.35;;;;;;;;;;4250655;33;20073;-78
2023/07/06 16:21:01;;;;;;;6.60;1.80;;;;;;;;;;4252058;33;20109;-78
2023/07/06 16:23:28;;;;;;;4.05;1.85;;;;;;;;;;4249275;33;20060;-79
2023/07/06 16:26:03;;;;;;;10.75;2.40;;;;;;;;;;4252173;33;20097;-79
2023/07/06 16:28:29;;;;;;;2.17;1.98;;;;;;;;;;4251156;33;20053;-78
2023/07/06 16:31:02;;;;;;;4.82;1.98;;;;;;;;;;4263087;33;20049;-80
2023/07/06 16:33:28;;;;;;;2.87;2.40;;;;;;;;;;4265266;33;20476;-79
2023/07/06 16:35:54;;;;;;;2.87;1.87;;;;;;;;;;4264572;33;20083;-80
2023/07/06 16:38:20;;;;;;;2.70;2.45;;;;;;;;;;4264463;33;20067;-80
2023/07/06 16:40:47;;;;;;;2.53;2.20;;;;;;;;;;4265556;33;20022;-77
2023/07/06 16:43:13;;;;;;;3.83;2.00;;;;;;;;;;4264486;33;20116;-78
2023/07/06 16:45:39;;;;;;;6.35;2.22;;;;;;;;;;4265999;33;20465;-78
2023/07/06 16:48:05;;;;;;;3.15;1.92;;;;;;;;;;4264026;33;20057;-78
2023/07/06 16:50:34;;;;;;;3.15;1.80;;;;;;;;;;4263582;33;20095;-78
2023/07/06 16:53:01;;;;;;;9.70;2.00;;;;;;;;;;4263325;33;20053;-77
2023/07/06 16:55:26;;;;;;;1.87;1.77;;;;;;;;;;4257914;33;20115;-79